Terminal Aerodrome Forecast
Issued by NWS

Current Version | Previous Version | Text Only | Print | Product List | Glossary On
Versions: 1 2 3 4 5 6 7 8 9 10 11 12 13 14 15 16 17
000
FTUS41 KBTV 012140 AAA
TAFSLK
TAF AMD
KSLK 012140Z 0122/0218 24008KT P6SM VCSH FEW020 OVC050
      TEMPO 0122/0124 23010G18KT 2SM +SHRA SCT010 BKN015 OVC030
     FM020300 24007KT P6SM BKN030
     FM020500 24008KT P6SM BKN020
     FM021200 24008KT P6SM SCT050
     FM021400 25009KT P6SM SCT200=

USA.gov is the U.S. government's official web portal to all federal, state and local government web resources and services.